createdAt,value
2019-01-18T00:00:54.682Z,2.30
2019-01-18T00:03:24.129Z,4.23
2019-01-18T00:05:53.549Z,3.70
2019-01-18T00:08:22.993Z,4.57
2019-01-18T00:10:52.440Z,2.93
2019-01-18T00:13:22.321Z,3.43
2019-01-18T00:15:51.762Z,2.77
2019-01-18T00:18:21.203Z,4.00
2019-01-18T00:20:50.644Z,2.33
2019-01-18T00:23:20.086Z,2.83
2019-01-18T00:25:49.524Z,4.53
2019-01-18T00:28:18.955Z,3.57
2019-01-18T00:30:48.400Z,2.43
2019-01-18T00:33:17.821Z,3.07
2019-01-18T00:35:47.269Z,4.17
2019-01-18T00:38:16.704Z,3.40
2019-01-18T00:40:46.150Z,4.27
2019-01-18T00:43:15.573Z,2.53
2019-01-18T00:45:45.028Z,2.33
2019-01-18T00:48:14.453Z,3.63
2019-01-18T00:50:43.881Z,3.77
2019-01-18T00:53:14.059Z,3.57
2019-01-18T00:55:43.488Z,3.40
2019-01-18T00:58:12.921Z,3.43
2019-01-18T01:00:42.363Z,2.77
2019-01-18T01:03:11.773Z,5.07
2019-01-18T01:05:41.189Z,3.47
2019-01-18T01:08:10.602Z,4.17
2019-01-18T01:10:40.088Z,3.00
2019-01-18T01:13:09.506Z,2.60
2019-01-18T01:15:38.960Z,3.60
2019-01-18T01:18:08.454Z,2.37
2019-01-18T01:20:37.872Z,3.17
2019-01-18T01:23:07.314Z,3.37
2019-01-18T01:25:36.721Z,2.77
2019-01-18T01:28:06.208Z,2.77
2019-01-18T01:30:35.678Z,3.80
2019-01-18T01:33:05.125Z,3.50
2019-01-18T01:35:34.541Z,2.77
2019-01-18T01:38:03.973Z,2.60
2019-01-18T01:40:33.397Z,2.10
2019-01-18T01:43:02.822Z,2.87
2019-01-18T01:45:32.257Z,3.77
2019-01-18T01:48:01.665Z,3.53
2019-01-18T01:50:31.077Z,3.97
2019-01-18T01:53:00.557Z,2.60
2019-01-18T01:55:30.322Z,3.60
2019-01-18T01:57:59.751Z,3.57
2019-01-18T02:00:29.196Z,2.33
2019-01-18T02:02:58.625Z,4.17
2019-01-18T02:05:28.062Z,2.23
2019-01-18T02:07:58.577Z,2.63
2019-01-18T02:10:28.009Z,2.40
2019-01-18T02:12:57.446Z,2.77
2019-01-18T02:15:27.429Z,2.70
2019-01-18T02:17:56.855Z,3.00
2019-01-18T02:20:26.277Z,2.47
2019-01-18T02:22:55.698Z,2.97
2019-01-18T02:25:25.145Z,2.83
2019-01-18T02:27:54.566Z,2.73
2019-01-18T02:30:26.158Z,3.83
2019-01-18T02:32:55.641Z,3.10
2019-01-18T02:35:25.049Z,2.07
2019-01-18T02:37:54.477Z,4.50
2019-01-18T02:40:23.925Z,2.53
2019-01-18T02:42:53.344Z,2.70
2019-01-18T02:45:23.411Z,2.70
2019-01-18T02:47:52.823Z,2.97
2019-01-18T02:50:22.248Z,3.97
2019-01-18T02:52:52.034Z,2.87
2019-01-18T02:55:28.512Z,2.97
2019-01-18T02:57:52.845Z,3.27
2019-01-18T03:00:23.430Z,4.67
2019-01-18T03:02:52.869Z,3.17
2019-01-18T03:05:24.768Z,2.70
2019-01-18T03:07:54.239Z,2.07
2019-01-18T03:10:25.892Z,2.53
2019-01-18T03:12:55.429Z,3.47
2019-01-18T03:15:24.858Z,3.57
2019-01-18T03:17:54.288Z,3.27
2019-01-18T03:20:23.707Z,2.77
2019-01-18T03:22:53.205Z,2.80
2019-01-18T03:25:24.985Z,2.30
2019-01-18T03:27:54.411Z,3.20
2019-01-18T03:30:23.862Z,2.97
2019-01-18T03:32:53.288Z,3.33
2019-01-18T03:35:23.500Z,3.33
2019-01-18T03:37:52.936Z,2.53
2019-01-18T03:40:22.366Z,3.53
2019-01-18T03:42:51.788Z,3.03
2019-01-18T03:45:21.293Z,3.53
2019-01-18T03:47:50.745Z,4.17
2019-01-18T03:50:24.654Z,3.73
2019-01-18T03:52:54.465Z,3.50
2019-01-18T03:55:24.025Z,3.67
2019-01-18T03:57:53.528Z,3.27
2019-01-18T04:00:28.154Z,2.70
2019-01-18T04:02:57.577Z,3.93
2019-01-18T04:05:27.338Z,3.83
2019-01-18T04:07:56.809Z,3.83
2019-01-18T04:10:26.259Z,3.57
2019-01-18T04:12:56.750Z,5.77
2019-01-18T04:15:26.215Z,3.83
2019-01-18T04:17:55.683Z,4.10
2019-01-18T04:20:25.089Z,3.33
2019-01-18T04:22:55.614Z,4.60
2019-01-18T04:25:28.931Z,4.23
2019-01-18T04:27:58.346Z,5.00
2019-01-18T04:30:33.241Z,3.77
2019-01-18T04:32:58.875Z,3.93
2019-01-18T04:35:28.293Z,4.60
2019-01-18T04:37:57.743Z,3.40
2019-01-18T04:40:27.534Z,3.83
2019-01-18T04:42:56.989Z,4.80
2019-01-18T04:45:27.482Z,4.33
2019-01-18T04:47:56.948Z,3.90
2019-01-18T04:50:27.609Z,4.57
2019-01-18T04:52:57.218Z,4.97
2019-01-18T04:55:26.702Z,4.27
2019-01-18T04:57:56.151Z,5.40
2019-01-18T05:00:30.081Z,4.40
2019-01-18T05:02:59.464Z,4.43
2019-01-18T05:05:28.885Z,4.33
2019-01-18T05:07:58.477Z,4.77
2019-01-18T05:10:28.929Z,4.67
2019-01-18T05:12:58.932Z,4.67
2019-01-18T05:15:30.388Z,4.77
2019-01-18T05:17:59.806Z,5.13
2019-01-18T05:20:29.237Z,4.20
2019-01-18T05:22:58.909Z,5.13
2019-01-18T05:25:28.401Z,4.63
2019-01-18T05:27:57.813Z,3.97
2019-01-18T05:30:28.885Z,4.73
2019-01-18T05:32:59.286Z,4.83
2019-01-18T05:35:28.726Z,4.03
2019-01-18T05:37:58.163Z,3.80
2019-01-18T05:40:27.609Z,3.50
2019-01-18T05:42:57.034Z,4.13
2019-01-18T05:45:26.481Z,4.47
2019-01-18T05:47:55.933Z,4.37
2019-01-18T05:50:27.411Z,3.90
2019-01-18T05:52:57.205Z,4.70
2019-01-18T05:55:26.712Z,5.17
2019-01-18T05:57:56.162Z,4.73
2019-01-18T06:00:43.376Z,4.77
2019-01-18T06:03:12.951Z,4.80
2019-01-18T06:05:43.683Z,6.93
2019-01-18T06:08:13.097Z,4.97
2019-01-18T06:10:42.516Z,4.00
2019-01-18T06:13:11.960Z,4.23
2019-01-18T06:15:41.392Z,7.77
2019-01-18T06:18:11.940Z,4.80
2019-01-18T06:20:41.590Z,4.53
2019-01-18T06:23:11.076Z,4.10
2019-01-18T06:25:40.559Z,5.97
2019-01-18T06:28:09.990Z,5.57
2019-01-18T06:30:39.401Z,5.50
2019-01-18T06:33:08.906Z,5.83
2019-01-18T06:35:38.482Z,4.97
2019-01-18T06:38:08.118Z,5.17
2019-01-18T06:40:37.606Z,5.37
2019-01-18T06:43:07.242Z,6.57
2019-01-18T06:45:36.671Z,5.17
2019-01-18T06:48:06.929Z,5.93
2019-01-18T06:50:36.415Z,5.83
2019-01-18T06:53:05.850Z,7.00
2019-01-18T06:55:35.341Z,6.93
2019-01-18T06:58:04.829Z,6.43
2019-01-18T07:00:34.947Z,5.10
2019-01-18T07:03:05.155Z,13.83
2019-01-18T07:05:34.580Z,10.83
2019-01-18T07:08:04.370Z,7.30
2019-01-18T07:10:33.809Z,8.10
2019-01-18T07:13:03.255Z,5.40
2019-01-18T07:15:32.702Z,5.57
2019-01-18T07:18:02.182Z,5.70
2019-01-18T07:20:31.710Z,6.90
2019-01-18T07:23:01.142Z,6.80
2019-01-18T07:25:31.618Z,5.47
2019-01-18T07:28:02.015Z,4.87
2019-01-18T07:30:39.498Z,5.97
2019-01-18T07:33:13.886Z,6.27
2019-01-18T07:35:43.314Z,6.07
2019-01-18T07:38:12.823Z,6.57
2019-01-18T07:40:42.272Z,7.20
2019-01-18T07:43:11.933Z,7.83
2019-01-18T07:45:41.353Z,7.17
2019-01-18T07:48:10.773Z,6.73
2019-01-18T07:50:40.243Z,6.53
2019-01-18T07:53:09.874Z,7.27
2019-01-18T07:55:39.470Z,6.53
2019-01-18T07:58:08.904Z,8.93
2019-01-18T08:00:38.333Z,7.90
2019-01-18T08:03:07.794Z,5.97
2019-01-18T08:05:37.238Z,6.47
2019-01-18T08:08:06.667Z,7.43
2019-01-18T08:10:36.106Z,7.70
2019-01-18T08:13:05.534Z,8.47
2019-01-18T08:15:35.056Z,6.60
2019-01-18T08:18:04.483Z,7.23
2019-01-18T08:20:33.966Z,8.30
2019-01-18T08:23:03.643Z,7.27
2019-01-18T08:25:33.286Z,6.47
2019-01-18T08:28:03.513Z,8.47
2019-01-18T08:30:32.942Z,9.07
2019-01-18T08:33:02.369Z,6.10
2019-01-18T08:35:32.057Z,6.23
2019-01-18T08:38:01.546Z,6.40
2019-01-18T08:40:36.705Z,7.80
2019-01-18T08:43:08.369Z,6.37
2019-01-18T08:45:40.710Z,7.13
2019-01-18T08:48:10.146Z,6.57
2019-01-18T08:50:40.037Z,7.73
2019-01-18T08:53:09.811Z,8.33
2019-01-18T08:55:39.458Z,6.57
2019-01-18T08:58:08.903Z,8.77
2019-01-18T09:00:38.330Z,8.40
2019-01-18T09:03:07.775Z,6.93
2019-01-18T09:05:37.185Z,8.83
2019-01-18T09:08:06.603Z,7.57
2019-01-18T09:10:36.114Z,6.97
2019-01-18T09:13:05.561Z,6.67
2019-01-18T09:15:34.973Z,6.13
2019-01-18T09:18:04.543Z,7.03
2019-01-18T09:20:34.150Z,7.03
2019-01-18T09:23:03.686Z,8.13
2019-01-18T09:25:33.143Z,6.47
2019-01-18T09:28:02.791Z,6.40
2019-01-18T09:30:33.864Z,7.03
2019-01-18T09:33:05.510Z,6.43
2019-01-18T09:35:35.514Z,5.63
2019-01-18T09:38:07.763Z,7.00
2019-01-18T09:40:37.181Z,5.20
2019-01-18T09:43:06.610Z,7.23
2019-01-18T09:45:36.030Z,6.57
2019-01-18T09:48:07.013Z,7.17
2019-01-18T09:50:36.436Z,9.63
2019-01-18T09:53:07.183Z,9.03
2019-01-18T09:55:36.615Z,7.47
2019-01-18T09:58:06.081Z,7.57
2019-01-18T10:00:36.849Z,8.67
2019-01-18T10:03:06.393Z,6.93
2019-01-18T10:05:35.823Z,8.63
2019-01-18T10:08:17.542Z,5.73
2019-01-18T10:10:47.038Z,6.70
2019-01-18T10:13:16.465Z,7.10
2019-01-18T10:15:46.803Z,6.00
2019-01-18T10:18:16.391Z,7.20
2019-01-18T10:20:57.762Z,8.03
2019-01-18T10:23:27.221Z,8.10
2019-01-18T10:25:56.987Z,5.83
2019-01-18T10:28:26.512Z,7.47
2019-01-18T10:51:40.147Z,8.23
2019-01-18T10:54:09.637Z,6.67
2019-01-18T10:56:39.297Z,6.80
2019-01-18T10:59:08.739Z,7.37
2019-01-18T11:01:39.062Z,7.23
2019-01-18T11:04:08.750Z,8.33
2019-01-18T11:06:38.641Z,6.27
2019-01-18T11:09:09.269Z,6.27
2019-01-18T11:11:38.766Z,6.90
2019-01-18T11:14:08.383Z,5.83
2019-01-18T11:16:37.858Z,5.77
2019-01-18T11:19:07.278Z,5.93
2019-01-18T11:21:36.881Z,4.73
2019-01-18T11:24:06.333Z,4.60
2019-01-18T11:26:36.269Z,4.40
2019-01-18T11:29:05.688Z,6.33
2019-01-18T11:31:35.108Z,5.37
2019-01-18T11:34:04.521Z,4.57
2019-01-18T11:36:33.963Z,3.83
2019-01-18T11:39:04.347Z,5.40
2019-01-18T11:41:33.765Z,5.37
2019-01-18T11:44:03.522Z,4.07
2019-01-18T11:46:32.966Z,5.23
2019-01-18T11:49:02.393Z,3.10
2019-01-18T11:51:32.117Z,4.37
2019-01-18T11:54:01.885Z,3.83
2019-01-18T11:56:31.432Z,5.70
2019-01-18T11:59:02.138Z,3.37
2019-01-18T12:01:31.557Z,3.57
2019-01-18T12:04:01.161Z,4.27
2019-01-18T12:06:30.663Z,4.87
2019-01-18T12:09:00.090Z,5.03
2019-01-18T12:11:30.284Z,4.03
2019-01-18T12:13:59.830Z,3.97
2019-01-18T12:16:29.276Z,4.73
2019-01-18T12:18:58.682Z,5.00
2019-01-18T12:21:29.258Z,5.27
2019-01-18T12:23:58.713Z,5.60
2019-01-18T12:26:28.142Z,5.47
2019-01-18T12:28:57.562Z,6.57
2019-01-18T12:31:27.210Z,7.00
2019-01-18T12:33:56.730Z,6.83
2019-01-18T12:36:26.169Z,6.17
2019-01-18T12:38:55.622Z,8.57
2019-01-18T12:41:25.054Z,7.87
2019-01-18T12:43:54.768Z,7.10
2019-01-18T12:46:24.190Z,7.87
2019-01-18T12:48:53.966Z,8.43
2019-01-18T12:51:24.076Z,7.77
2019-01-18T12:53:53.494Z,9.50
2019-01-18T12:56:22.929Z,7.67
2019-01-18T12:58:56.454Z,8.50
2019-01-18T13:01:23.481Z,7.43
2019-01-18T13:03:52.934Z,8.83
2019-01-18T13:06:22.358Z,9.17
2019-01-18T13:08:52.277Z,10.40
2019-01-18T13:11:21.713Z,9.67
2019-01-18T13:13:51.374Z,12.00
2019-01-18T13:16:36.505Z,10.63
2019-01-18T13:19:09.088Z,12.30
2019-01-18T13:21:38.520Z,11.33
2019-01-18T13:24:07.964Z,8.80
2019-01-18T13:26:37.401Z,9.97
2019-01-18T13:29:06.813Z,11.90
2019-01-18T13:31:36.250Z,10.23
2019-01-18T13:34:05.802Z,9.70
2019-01-18T13:36:35.244Z,8.03
2019-01-18T13:39:07.695Z,9.20
2019-01-18T13:41:37.142Z,9.93
2019-01-18T13:44:06.569Z,8.70
2019-01-18T13:46:35.985Z,10.17
2019-01-18T13:49:05.409Z,10.23
2019-01-18T13:51:34.902Z,10.30
2019-01-18T13:54:04.689Z,8.53
2019-01-18T13:56:34.105Z,8.70
2019-01-18T13:59:03.526Z,8.47
2019-01-18T14:01:32.950Z,8.47
2019-01-18T14:04:03.362Z,10.77
2019-01-18T14:06:33.059Z,8.63
2019-01-18T14:09:02.849Z,8.87
2019-01-18T14:11:33.457Z,8.27
2019-01-18T14:14:03.010Z,9.60
2019-01-18T14:16:32.442Z,8.20
2019-01-18T14:19:01.979Z,9.97
2019-01-18T14:21:31.406Z,6.97
2019-01-18T14:24:01.001Z,7.20
2019-01-18T14:26:30.438Z,7.60
2019-01-18T14:28:59.914Z,6.83
2019-01-18T14:31:29.333Z,8.13
2019-01-18T14:33:58.766Z,9.33
2019-01-18T14:36:28.204Z,8.07
2019-01-18T14:38:57.642Z,7.97
2019-01-18T14:41:30.925Z,8.63
2019-01-18T14:43:58.358Z,8.30
2019-01-18T14:46:27.802Z,8.37
2019-01-18T14:48:57.378Z,8.20
2019-01-18T14:51:27.026Z,8.67
2019-01-18T14:53:56.820Z,8.27
2019-01-18T14:56:26.284Z,8.07
2019-01-18T14:58:55.709Z,10.13
2019-01-18T15:01:25.210Z,10.23
2019-01-18T15:03:54.720Z,8.00
2019-01-18T15:06:24.226Z,9.50
2019-01-18T15:08:53.654Z,9.30
2019-01-18T15:11:23.078Z,8.80
2019-01-18T15:13:52.917Z,9.27
2019-01-18T15:16:22.358Z,7.90
2019-01-18T15:18:52.314Z,7.50
2019-01-18T15:21:21.803Z,8.70
2019-01-18T15:23:51.978Z,8.37
2019-01-18T15:26:21.435Z,7.03
2019-01-18T15:28:50.866Z,6.60
2019-01-18T15:31:20.353Z,9.30
2019-01-18T15:33:49.808Z,5.27
2019-01-18T15:36:19.234Z,6.27
2019-01-18T15:38:49.662Z,6.80
2019-01-18T15:41:19.113Z,6.93
2019-01-18T15:46:57.830Z,5.57
2019-01-18T15:49:27.781Z,6.53
2019-01-18T15:51:57.210Z,7.37
2019-01-18T15:54:26.855Z,7.40
2019-01-18T15:56:56.261Z,8.10
2019-01-18T15:59:25.682Z,8.70
2019-01-18T16:01:55.098Z,8.47
2019-01-18T16:04:24.506Z,9.83
2019-01-18T16:06:53.940Z,8.20
2019-01-18T16:09:23.346Z,10.43
2019-01-18T16:11:52.765Z,9.50
2019-01-18T16:14:22.181Z,9.63
2019-01-18T16:16:56.242Z,11.50
2019-01-18T16:19:25.657Z,10.33
2019-01-18T16:21:55.112Z,8.40
2019-01-18T16:24:24.529Z,11.57
2019-01-18T16:26:54.002Z,12.00
2019-01-18T16:29:23.430Z,12.03
2019-01-18T16:31:52.934Z,10.80
2019-01-18T16:34:22.354Z,10.50
2019-01-18T16:36:51.869Z,8.63
2019-01-18T16:39:21.499Z,12.27
2019-01-18T16:41:50.918Z,11.07
2019-01-18T16:44:20.366Z,10.93
2019-01-18T16:46:50.287Z,11.57
2019-01-18T16:49:19.721Z,10.00
2019-01-18T16:51:49.133Z,12.67
2019-01-18T16:54:18.561Z,13.13
2019-01-18T16:56:48.085Z,12.23
2019-01-18T16:59:17.506Z,12.30
2019-01-18T17:01:46.954Z,13.03
2019-01-18T17:04:16.369Z,14.13
2019-01-18T17:06:45.795Z,14.10
2019-01-18T17:09:15.292Z,15.83
2019-01-18T17:11:44.705Z,17.57
2019-01-18T17:14:14.158Z,15.07
2019-01-18T17:16:45.039Z,15.97
2019-01-18T17:19:14.585Z,15.20
2019-01-18T17:21:44.009Z,16.83
2019-01-18T17:24:13.485Z,16.93
2019-01-18T17:26:42.913Z,17.97
2019-01-18T17:29:12.330Z,18.60
2019-01-18T17:31:41.775Z,16.57
2019-01-18T17:34:11.181Z,17.13
2019-01-18T17:37:00.126Z,18.53
2019-01-18T17:40:09.742Z,16.27
2019-01-18T17:43:14.587Z,16.43
2019-01-18T17:46:34.528Z,18.03
2019-01-18T17:49:51.293Z,17.03
2019-01-18T17:53:11.077Z,16.63
2019-01-18T17:56:20.073Z,15.93
2019-01-18T17:59:18.243Z,15.93
2019-01-18T18:02:29.825Z,16.60
2019-01-18T18:05:35.590Z,15.73
2019-01-18T18:08:23.378Z,16.20
2019-01-18T18:11:36.236Z,16.97
2019-01-18T18:14:30.153Z,18.33
2019-01-18T18:17:29.809Z,19.13
2019-01-18T18:20:45.948Z,20.63
2019-01-18T18:24:02.354Z,23.17
2019-01-18T18:27:03.807Z,23.07
2019-01-18T18:29:53.113Z,26.03
2019-01-18T18:32:59.149Z,26.37
2019-01-18T18:35:50.638Z,25.17
2019-01-18T18:38:49.031Z,27.33
2019-01-18T18:41:44.918Z,29.03
2019-01-18T18:45:04.982Z,29.30
2019-01-18T18:47:58.117Z,28.20
2019-01-18T18:51:24.330Z,31.07
2019-01-18T18:54:28.918Z,30.27
2019-01-18T18:57:26.207Z,30.37
2019-01-18T19:00:20.341Z,32.90
2019-01-18T19:03:27.178Z,29.07
2019-01-18T19:06:36.797Z,33.93
2019-01-18T19:10:06.345Z,37.37
2019-01-18T19:13:12.261Z,36.23
2019-01-18T19:16:26.770Z,39.10
2019-01-18T19:19:34.042Z,36.13
2019-01-18T19:22:47.057Z,37.97
2019-01-18T19:25:43.341Z,36.47
2019-01-18T19:29:06.638Z,36.03
2019-01-18T19:32:35.926Z,38.20
2019-01-18T19:35:36.508Z,37.27
2019-01-18T19:38:49.706Z,35.97
2019-01-18T19:41:48.042Z,39.50
2019-01-18T19:44:44.376Z,38.70
2019-01-18T19:47:35.118Z,38.80
2019-01-18T19:50:28.739Z,39.73
2019-01-18T19:53:08.938Z,40.30
2019-01-18T19:56:22.713Z,39.70
2019-01-18T19:59:32.622Z,38.50
2019-01-18T20:02:31.710Z,37.40
2019-01-18T20:06:04.022Z,33.07
2019-01-18T20:08:41.961Z,35.43
2019-01-18T20:11:54.906Z,30.23
2019-01-18T20:15:01.512Z,34.50
2019-01-18T20:18:04.954Z,32.97
2019-01-18T20:21:32.022Z,35.17
2019-01-18T20:24:44.344Z,33.00
2019-01-18T20:27:37.182Z,32.50
2019-01-18T20:30:19.357Z,33.77
2019-01-18T20:33:12.204Z,32.77
2019-01-18T20:36:17.300Z,34.17
2019-01-18T20:39:26.017Z,34.33
2019-01-18T20:43:07.549Z,34.03
2019-01-18T20:46:03.082Z,34.03
2019-01-18T20:49:05.264Z,35.37
2019-01-18T20:52:34.360Z,34.53
2019-01-18T20:55:46.404Z,36.77
2019-01-18T20:58:47.299Z,37.70
2019-01-18T21:01:54.341Z,39.60
2019-01-18T21:04:46.065Z,37.43
2019-01-18T21:07:33.387Z,38.83
2019-01-18T21:10:50.150Z,36.13
2019-01-18T21:13:51.334Z,36.13
2019-01-18T21:16:47.831Z,38.27
2019-01-18T21:19:37.210Z,47.63
2019-01-18T21:22:49.530Z,52.60
2019-01-18T21:26:00.313Z,48.23
2019-01-18T21:28:53.186Z,58.97
2019-01-18T21:32:06.181Z,58.07
2019-01-18T21:34:56.966Z,58.67
2019-01-18T21:37:51.158Z,59.43
2019-01-18T21:40:48.886Z,63.17
2019-01-18T21:43:55.811Z,72.93
2019-01-18T21:47:01.515Z,74.63
2019-01-18T21:50:06.837Z,70.50
2019-01-18T21:52:53.231Z,78.37
2019-01-18T21:55:42.195Z,72.50
2019-01-18T21:58:42.014Z,73.27
2019-01-18T22:01:57.718Z,71.80
2019-01-18T22:04:54.614Z,65.17
2019-01-18T22:07:47.513Z,71.17
2019-01-18T22:10:49.746Z,65.97
2019-01-18T22:13:37.294Z,65.80
2019-01-18T22:16:56.165Z,78.13
2019-01-18T22:20:08.229Z,76.43
2019-01-18T22:23:28.213Z,65.03
2019-01-18T22:26:46.925Z,56.73
2019-01-18T22:29:59.854Z,70.87
2019-01-18T22:33:00.633Z,69.40
2019-01-18T22:36:11.958Z,71.70
2019-01-18T22:39:05.451Z,70.20
2019-01-18T22:42:11.213Z,69.97
2019-01-18T22:45:05.450Z,67.40
2019-01-18T22:48:31.773Z,63.97
2019-01-18T22:51:43.078Z,64.37
2019-01-18T22:54:33.994Z,67.40
2019-01-18T22:57:14.494Z,67.50
2019-01-18T23:00:48.118Z,71.27
2019-01-18T23:03:39.646Z,57.43
2019-01-18T23:06:42.506Z,64.30
2019-01-18T23:09:48.340Z,60.67
2019-01-18T23:13:11.470Z,65.73
2019-01-18T23:16:06.861Z,56.37
2019-01-18T23:19:01.876Z,62.03
2019-01-18T23:22:02.626Z,56.40
2019-01-18T23:24:42.238Z,52.90
2019-01-18T23:27:39.434Z,58.33
2019-01-18T23:30:43.450Z,50.07
2019-01-18T23:33:45.558Z,57.87
2019-01-18T23:36:40.214Z,60.90
2019-01-18T23:39:45.205Z,55.57
2019-01-18T23:43:02.705Z,57.63
2019-01-18T23:46:00.319Z,57.63
2019-01-18T23:49:28.190Z,54.43
2019-01-18T23:52:28.918Z,55.90
2019-01-18T23:55:31.567Z,58.47
2019-01-18T23:58:45.173Z,46.53
